Westcliffe, CO (81252)

5:07 AM MST on December 07, 2016 (GMT -0700)
| | Change Station

Elev -9999 ft 0.00 °N, 0.00 °E | Updated

Partly Cloudy
Partly Cloudy
9 °F
Feels Like -5 °F
N
10
Wind Variable Wind from NNE
Gusts mph

Today
High -- | Low -- °F
--% Chance of Precip.
Yesterday
High -- | Low -- °F
Precip. -- in
Pressure 29.83 in
Visibility 10.0 miles
Clouds Clear
Windchill -5 °F
Dew Point 4 °F
Humidity 79%
Rainfall --
Snow Depth Not available.
7:05 AM 4:41 PM
First Quarter, 52% visible
METAR K04V 071149Z AUTO 30012KT 10SM CLR M08/M14 A2983 RMK AO2
Pressure 29.83 in
Visibility 10.0 miles
Clouds Clear
Windchill -5 °F
Dew Point 4 °F
Humidity 79%
Rainfall --
Snow Depth Not available.
7:05 AM 4:41 PM
First Quarter, 52% visible
METAR K04V 071149Z AUTO 30012KT 10SM CLR M08/M14 A2983 RMK AO2

10-Day Weather Forecast

Almanac

Astronomy

Dec. 07, 2016 Rise Set
Actual Time
Civil Twilight
Nautical Twilight
Astronomical Twilight
Moon
Length of Visible Light
Length of Day
Tomorrow will be .
, % of the Moon is Illuminated

Today's Extremes

State Highs State Lows

Community

WunderPhotos

Upload Photos

1,956,111 photos uploaded!

WunderBlog® & News

Nearby

Air Quality

  Air Quality AQ Index Pollutant
Not available.

Snow Depth

Station Depth Elevation

Earthquake Activity

City Distance Mag. Time & Date
Minimum magnitude displayed is 2.5.

Coastal Water Temperatures

Place Temperature

Stations

Nearby Weather Stations

Station Location Temp. Windchill Dew Point Humidity Wind Precip. Elev Updated Type
                   

Watches & Warnings

There are currently no watches in effect.